sensor_id;sensor_type;location;lat;lon;timestamp;pressure;altitude;pressure_sealevel;temperature;humidity
54248;BME280;40161;39.768;2.722;2023-07-31T00:01:48;101347.63;;;27.23;81.10
54248;BME280;40161;39.768;2.722;2023-07-31T00:04:13;101323.16;;;27.10;81.21
54248;BME280;40161;39.768;2.722;2023-07-31T00:06:39;101340.56;;;27.18;81.20
54248;BME280;40161;39.768;2.722;2023-07-31T00:09:04;101345.41;;;27.17;81.37
54248;BME280;40161;39.768;2.722;2023-07-31T00:11:30;101334.91;;;27.18;81.96
54248;BME280;40161;39.768;2.722;2023-07-31T00:13:55;101345.59;;;27.23;81.13
54248;BME280;40161;39.768;2.722;2023-07-31T00:16:21;101336.19;;;27.17;81.24
54248;BME280;40161;39.768;2.722;2023-07-31T00:18:46;101341.47;;;27.15;82.35
54248;BME280;40161;39.768;2.722;2023-07-31T00:21:12;101326.91;;;27.07;82.06
54248;BME280;40161;39.768;2.722;2023-07-31T00:23:37;101332.22;;;27.05;82.12
54248;BME280;40161;39.768;2.722;2023-07-31T00:26:03;101330.63;;;26.95;83.35
54248;BME280;40161;39.768;2.722;2023-07-31T00:28:28;101322.31;;;26.82;84.08
54248;BME280;40161;39.768;2.722;2023-07-31T00:30:54;101330.06;;;26.69;85.33
54248;BME280;40161;39.768;2.722;2023-07-31T00:33:20;101334.31;;;26.73;85.94
54248;BME280;40161;39.768;2.722;2023-07-31T00:35:45;101329.66;;;26.80;84.94
54248;BME280;40161;39.768;2.722;2023-07-31T00:38:11;101329.84;;;26.94;84.24
54248;BME280;40161;39.768;2.722;2023-07-31T00:40:37;101327.97;;;27.01;84.22
54248;BME280;40161;39.768;2.722;2023-07-31T00:43:03;101319.84;;;27.03;83.42
54248;BME280;40161;39.768;2.722;2023-07-31T00:45:29;101308.06;;;26.86;83.75
54248;BME280;40161;39.768;2.722;2023-07-31T00:47:55;101316.34;;;26.80;84.81
54248;BME280;40161;39.768;2.722;2023-07-31T00:50:23;101331.63;;;26.70;86.42
54248;BME280;40161;39.768;2.722;2023-07-31T00:52:49;101326.78;;;26.61;86.67
54248;BME280;40161;39.768;2.722;2023-07-31T00:55:15;101315.97;;;26.60;87.05
54248;BME280;40161;39.768;2.722;2023-07-31T00:57:41;101311.44;;;26.62;86.10
54248;BME280;40161;39.768;2.722;2023-07-31T01:00:08;101310.66;;;26.62;86.46
54248;BME280;40161;39.768;2.722;2023-07-31T01:02:34;101304.75;;;26.69;86.26
54248;BME280;40161;39.768;2.722;2023-07-31T01:05:00;101317.41;;;26.64;86.45
54248;BME280;40161;39.768;2.722;2023-07-31T01:07:42;101305.19;;;26.58;87.17
54248;BME280;40161;39.768;2.722;2023-07-31T01:10:33;101303.81;;;26.72;85.89
54248;BME280;40161;39.768;2.722;2023-07-31T01:13:03;101299.94;;;26.79;86.06
54248;BME280;40161;39.768;2.722;2023-07-31T01:15:28;101287.09;;;26.78;85.00
54248;BME280;40161;39.768;2.722;2023-07-31T01:17:54;101290.72;;;26.87;84.90
54248;BME280;40161;39.768;2.722;2023-07-31T01:20:24;101287.91;;;26.87;84.75
54248;BME280;40161;39.768;2.722;2023-07-31T01:26:03;101292.22;;;26.70;87.10
54248;BME280;40161;39.768;2.722;2023-07-31T01:31:02;101294.91;;;26.73;86.99
54248;BME280;40161;39.768;2.722;2023-07-31T01:33:30;101291.31;;;26.73;87.48
54248;BME280;40161;39.768;2.722;2023-07-31T01:35:56;101276.84;;;26.52;87.94
54248;BME280;40161;39.768;2.722;2023-07-31T01:38:22;101291.28;;;26.64;87.37
54248;BME280;40161;39.768;2.722;2023-07-31T01:40:51;101267.44;;;26.46;87.82
54248;BME280;40161;39.768;2.722;2023-07-31T01:43:18;101292.22;;;26.70;87.32
54248;BME280;40161;39.768;2.722;2023-07-31T01:45:43;101290.22;;;26.70;87.45
54248;BME280;40161;39.768;2.722;2023-07-31T01:48:09;101273.88;;;26.56;86.64
54248;BME280;40161;39.768;2.722;2023-07-31T01:50:34;101297.56;;;26.68;86.85
54248;BME280;40161;39.768;2.722;2023-07-31T01:53:00;101286.28;;;26.68;86.82
54248;BME280;40161;39.768;2.722;2023-07-31T01:55:25;101293.00;;;26.61;87.19
54248;BME280;40161;39.768;2.722;2023-07-31T01:57:51;101294.41;;;26.35;89.25
54248;BME280;40161;39.768;2.722;2023-07-31T02:00:17;101287.88;;;26.38;90.64
54248;BME280;40161;39.768;2.722;2023-07-31T02:02:43;101277.47;;;26.47;89.25
54248;BME280;40161;39.768;2.722;2023-07-31T02:05:08;101281.50;;;26.46;89.46
54248;BME280;40161;39.768;2.722;2023-07-31T02:07:34;101271.47;;;26.36;90.87
54248;BME280;40161;39.768;2.722;2023-07-31T02:10:00;101268.28;;;26.25;90.38
54248;BME280;40161;39.768;2.722;2023-07-31T02:12:25;101255.53;;;26.02;91.94
54248;BME280;40161;39.768;2.722;2023-07-31T02:14:51;101279.44;;;26.07;92.35
54248;BME280;40161;39.768;2.722;2023-07-31T02:17:16;101282.25;;;26.07;92.74
54248;BME280;40161;39.768;2.722;2023-07-31T02:19:42;101270.59;;;26.17;92.89
54248;BME280;40161;39.768;2.722;2023-07-31T02:22:07;101276.56;;;26.28;91.77
54248;BME280;40161;39.768;2.722;2023-07-31T02:24:33;101267.06;;;26.26;91.95
54248;BME280;40161;39.768;2.722;2023-07-31T02:26:58;101269.81;;;26.17;93.06
54248;BME280;40161;39.768;2.722;2023-07-31T02:29:24;101273.69;;;26.10;93.30
54248;BME280;40161;39.768;2.722;2023-07-31T02:31:49;101249.75;;;26.06;94.06
54248;BME280;40161;39.768;2.722;2023-07-31T02:34:15;101262.34;;;26.23;93.01
54248;BME280;40161;39.768;2.722;2023-07-31T02:36:40;101258.22;;;26.15;93.03
54248;BME280;40161;39.768;2.722;2023-07-31T02:39:06;101271.34;;;26.09;93.57
54248;BME280;40161;39.768;2.722;2023-07-31T02:41:31;101260.94;;;25.96;94.18
54248;BME280;40161;39.768;2.722;2023-07-31T02:43:57;101271.72;;;25.98;94.55
54248;BME280;40161;39.768;2.722;2023-07-31T02:46:22;101264.25;;;25.95;94.72
54248;BME280;40161;39.768;2.722;2023-07-31T02:48:50;101262.84;;;25.99;94.23
54248;BME280;40161;39.768;2.722;2023-07-31T02:51:16;101266.94;;;26.08;93.85
54248;BME280;40161;39.768;2.722;2023-07-31T02:53:41;101274.16;;;26.09;93.72
54248;BME280;40161;39.768;2.722;2023-07-31T02:56:07;101267.47;;;26.15;93.12
54248;BME280;40161;39.768;2.722;2023-07-31T02:58:32;101273.44;;;26.26;92.54
54248;BME280;40161;39.768;2.722;2023-07-31T03:00:58;101270.63;;;26.26;92.35
54248;BME280;40161;39.768;2.722;2023-07-31T03:03:24;101258.13;;;26.27;91.98
54248;BME280;40161;39.768;2.722;2023-07-31T03:05:49;101266.44;;;26.31;91.66
54248;BME280;40161;39.768;2.722;2023-07-31T03:08:15;101274.81;;;26.22;91.90
54248;BME280;40161;39.768;2.722;2023-07-31T03:10:40;101271.69;;;26.20;92.54
54248;BME280;40161;39.768;2.722;2023-07-31T03:13:06;101272.66;;;26.26;92.09
54248;BME280;40161;39.768;2.722;2023-07-31T03:15:32;101274.50;;;26.20;93.02
54248;BME280;40161;39.768;2.722;2023-07-31T03:17:57;101270.88;;;26.10;93.47
54248;BME280;40161;39.768;2.722;2023-07-31T03:20:23;101272.97;;;26.19;93.43
54248;BME280;40161;39.768;2.722;2023-07-31T03:22:49;101275.09;;;26.15;93.00
54248;BME280;40161;39.768;2.722;2023-07-31T03:25:14;101232.84;;;25.96;93.34
54248;BME280;40161;39.768;2.722;2023-07-31T03:27:40;101280.31;;;26.25;92.70
54248;BME280;40161;39.768;2.722;2023-07-31T03:30:06;101282.88;;;26.33;92.59
54248;BME280;40161;39.768;2.722;2023-07-31T03:32:32;101292.72;;;26.37;92.00
54248;BME280;40161;39.768;2.722;2023-07-31T03:34:58;101276.94;;;26.40;91.75
54248;BME280;40161;39.768;2.722;2023-07-31T03:37:23;101279.63;;;26.43;92.04
54248;BME280;40161;39.768;2.722;2023-07-31T03:39:49;101272.88;;;26.41;92.29
54248;BME280;40161;39.768;2.722;2023-07-31T03:42:14;101281.13;;;26.35;92.35
54248;BME280;40161;39.768;2.722;2023-07-31T03:44:40;101285.91;;;26.16;93.26
54248;BME280;40161;39.768;2.722;2023-07-31T03:47:05;101281.66;;;26.12;94.71
54248;BME280;40161;39.768;2.722;2023-07-31T03:49:31;101262.50;;;25.97;94.88
54248;BME280;40161;39.768;2.722;2023-07-31T03:51:57;101290.34;;;26.04;95.26
54248;BME280;40161;39.768;2.722;2023-07-31T03:54:22;101286.50;;;26.11;95.52
54248;BME280;40161;39.768;2.722;2023-07-31T03:56:48;101287.81;;;26.19;94.82
54248;BME280;40161;39.768;2.722;2023-07-31T03:59:13;101287.16;;;26.15;93.24
54248;BME280;40161;39.768;2.722;2023-07-31T04:01:39;101293.78;;;25.99;96.15
54248;BME280;40161;39.768;2.722;2023-07-31T04:04:04;101293.38;;;26.10;95.93
54248;BME280;40161;39.768;2.722;2023-07-31T04:06:30;101290.09;;;26.12;95.07
54248;BME280;40161;39.768;2.722;2023-07-31T04:08:56;101291.03;;;26.09;95.18
54248;BME280;40161;39.768;2.722;2023-07-31T04:11:21;101282.81;;;25.92;96.45
54248;BME280;40161;39.768;2.722;2023-07-31T04:13:47;101282.44;;;25.81;97.88
54248;BME280;40161;39.768;2.722;2023-07-31T04:16:12;101284.66;;;25.73;99.12
54248;BME280;40161;39.768;2.722;2023-07-31T04:18:38;101285.13;;;25.72;99.05
54248;BME280;40161;39.768;2.722;2023-07-31T04:21:04;101288.94;;;25.78;98.07
54248;BME280;40161;39.768;2.722;2023-07-31T04:23:29;101269.59;;;25.80;98.87
54248;BME280;40161;39.768;2.722;2023-07-31T04:25:55;101275.94;;;25.93;97.24
54248;BME280;40161;39.768;2.722;2023-07-31T04:28:20;101286.63;;;26.08;96.50
54248;BME280;40161;39.768;2.722;2023-07-31T04:30:46;101291.69;;;25.91;97.49
54248;BME280;40161;39.768;2.722;2023-07-31T04:33:12;101292.72;;;25.84;98.50
54248;BME280;40161;39.768;2.722;2023-07-31T04:35:37;101274.44;;;25.79;98.32
54248;BME280;40161;39.768;2.722;2023-07-31T04:38:03;101294.63;;;25.87;97.14
54248;BME280;40161;39.768;2.722;2023-07-31T04:40:29;101291.31;;;25.79;98.07
54248;BME280;40161;39.768;2.722;2023-07-31T04:42:54;101292.53;;;25.78;98.80
54248;BME280;40161;39.768;2.722;2023-07-31T04:45:20;101296.53;;;25.90;98.47
54248;BME280;40161;39.768;2.722;2023-07-31T04:47:45;101287.50;;;25.95;97.70
54248;BME280;40161;39.768;2.722;2023-07-31T04:50:11;101274.88;;;26.00;97.04
54248;BME280;40161;39.768;2.722;2023-07-31T04:52:36;101283.16;;;26.03;96.73
54248;BME280;40161;39.768;2.722;2023-07-31T04:55:02;101286.31;;;26.06;96.35
54248;BME280;40161;39.768;2.722;2023-07-31T04:57:28;101298.50;;;26.12;95.84
54248;BME280;40161;39.768;2.722;2023-07-31T04:59:54;101299.97;;;26.16;96.08
54248;BME280;40161;39.768;2.722;2023-07-31T05:02:19;101297.59;;;26.15;95.38
54248;BME280;40161;39.768;2.722;2023-07-31T05:04:45;101296.66;;;26.09;96.06
54248;BME280;40161;39.768;2.722;2023-07-31T05:07:10;101303.13;;;25.96;97.48
54248;BME280;40161;39.768;2.722;2023-07-31T05:09:36;101295.03;;;25.98;97.13
54248;BME280;40161;39.768;2.722;2023-07-31T05:12:01;101301.94;;;26.07;96.84
54248;BME280;40161;39.768;2.722;2023-07-31T05:14:27;101291.47;;;26.07;96.22
54248;BME280;40161;39.768;2.722;2023-07-31T05:16:52;101301.16;;;26.06;97.35
54248;BME280;40161;39.768;2.722;2023-07-31T05:19:18;101297.38;;;26.00;98.05
54248;BME280;40161;39.768;2.722;2023-07-31T05:21:44;101300.38;;;26.06;97.62
54248;BME280;40161;39.768;2.722;2023-07-31T05:24:10;101294.78;;;26.15;96.20
54248;BME280;40161;39.768;2.722;2023-07-31T05:26:35;101290.91;;;26.21;95.69
54248;BME280;40161;39.768;2.722;2023-07-31T05:29:01;101288.25;;;26.18;96.53
54248;BME280;40161;39.768;2.722;2023-07-31T05:31:26;101289.97;;;26.15;97.35
54248;BME280;40161;39.768;2.722;2023-07-31T05:33:52;101279.31;;;26.10;97.64
54248;BME280;40161;39.768;2.722;2023-07-31T05:36:17;101287.59;;;26.14;97.34
54248;BME280;40161;39.768;2.722;2023-07-31T05:38:43;101287.94;;;26.16;97.54
54248;BME280;40161;39.768;2.722;2023-07-31T05:41:12;101290.75;;;26.16;98.40
54248;BME280;40161;39.768;2.722;2023-07-31T05:43:37;101284.16;;;26.10;98.97
54248;BME280;40161;39.768;2.722;2023-07-31T05:46:03;101288.03;;;26.03;99.41
54248;BME280;40161;39.768;2.722;2023-07-31T05:48:29;101292.59;;;26.10;99.37
54248;BME280;40161;39.768;2.722;2023-07-31T05:50:54;101293.22;;;26.14;98.46
54248;BME280;40161;39.768;2.722;2023-07-31T05:53:20;101287.47;;;26.17;97.66
54248;BME280;40161;39.768;2.722;2023-07-31T05:55:45;101299.50;;;26.18;97.41
54248;BME280;40161;39.768;2.722;2023-07-31T05:58:11;101280.72;;;26.15;98.32
54248;BME280;40161;39.768;2.722;2023-07-31T06:00:36;101297.00;;;26.20;97.29
54248;BME280;40161;39.768;2.722;2023-07-31T06:03:02;101271.34;;;26.09;97.49
54248;BME280;40161;39.768;2.722;2023-07-31T06:05:27;101304.41;;;26.26;98.73
54248;BME280;40161;39.768;2.722;2023-07-31T06:07:55;101294.84;;;26.24;98.94
54248;BME280;40161;39.768;2.722;2023-07-31T06:10:20;101295.63;;;26.24;98.06
54248;BME280;40161;39.768;2.722;2023-07-31T06:12:46;101289.56;;;26.26;97.67
54248;BME280;40161;39.768;2.722;2023-07-31T06:15:12;101294.75;;;26.37;96.91
54248;BME280;40161;39.768;2.722;2023-07-31T06:17:37;101301.66;;;26.45;96.58
54248;BME280;40161;39.768;2.722;2023-07-31T06:20:03;101293.75;;;26.52;95.54
54248;BME280;40161;39.768;2.722;2023-07-31T06:22:30;101277.47;;;26.47;95.82
54248;BME280;40161;39.768;2.722;2023-07-31T06:24:56;101298.78;;;26.58;95.83
54248;BME280;40161;39.768;2.722;2023-07-31T06:27:22;101300.53;;;26.64;95.63
54248;BME280;40161;39.768;2.722;2023-07-31T06:29:48;101303.66;;;26.75;94.90
54248;BME280;40161;39.768;2.722;2023-07-31T06:32:13;101302.59;;;26.82;94.61
54248;BME280;40161;39.768;2.722;2023-07-31T06:34:39;101302.78;;;26.88;95.22
54248;BME280;40161;39.768;2.722;2023-07-31T06:37:04;101284.75;;;26.76;94.83
54248;BME280;40161;39.768;2.722;2023-07-31T06:39:30;101307.63;;;26.96;95.29
54248;BME280;40161;39.768;2.722;2023-07-31T06:41:56;101309.03;;;27.01;95.51
54248;BME280;40161;39.768;2.722;2023-07-31T06:44:21;101307.03;;;27.02;95.45
54248;BME280;40161;39.768;2.722;2023-07-31T06:46:47;101307.97;;;27.08;95.12
54248;BME280;40161;39.768;2.722;2023-07-31T06:49:12;101310.31;;;27.09;93.90
54248;BME280;40161;39.768;2.722;2023-07-31T06:51:40;101298.28;;;27.09;92.51
54248;BME280;40161;39.768;2.722;2023-07-31T06:54:06;101300.19;;;27.30;92.77
54248;BME280;40161;39.768;2.722;2023-07-31T06:56:31;101303.97;;;27.36;91.50
54248;BME280;40161;39.768;2.722;2023-07-31T06:58:57;101305.53;;;27.47;90.98
54248;BME280;40161;39.768;2.722;2023-07-31T07:01:22;101301.44;;;27.48;90.06
54248;BME280;40161;39.768;2.722;2023-07-31T07:03:48;101309.09;;;27.56;90.54
54248;BME280;40161;39.768;2.722;2023-07-31T07:06:16;101276.56;;;27.46;90.56
54248;BME280;40161;39.768;2.722;2023-07-31T07:08:42;101313.19;;;27.64;90.25
54248;BME280;40161;39.768;2.722;2023-07-31T07:11:07;101313.31;;;27.70;90.32
54248;BME280;40161;39.768;2.722;2023-07-31T07:13:33;101314.75;;;27.75;89.71
54248;BME280;40161;39.768;2.722;2023-07-31T07:15:59;101283.59;;;27.60;89.64
54248;BME280;40161;39.768;2.722;2023-07-31T07:18:24;101286.72;;;27.71;89.27
54248;BME280;40161;39.768;2.722;2023-07-31T07:20:52;101308.66;;;27.85;87.48
54248;BME280;40161;39.768;2.722;2023-07-31T07:23:18;101281.25;;;27.77;87.51
54248;BME280;40161;39.768;2.722;2023-07-31T07:25:45;101309.09;;;27.93;86.29
54248;BME280;40161;39.768;2.722;2023-07-31T07:28:11;101308.31;;;28.02;86.22
54248;BME280;40161;39.768;2.722;2023-07-31T07:30:36;101313.31;;;28.07;86.25
54248;BME280;40161;39.768;2.722;2023-07-31T07:33:02;101286.22;;;28.00;87.85
54248;BME280;40161;39.768;2.722;2023-07-31T07:35:28;101314.38;;;28.19;87.71
54248;BME280;40161;39.768;2.722;2023-07-31T07:37:54;101311.22;;;28.26;88.45
54248;BME280;40161;39.768;2.722;2023-07-31T07:40:20;101312.13;;;28.32;88.01
54248;BME280;40161;39.768;2.722;2023-07-31T07:42:46;101289.00;;;28.19;88.33
54248;BME280;40161;39.768;2.722;2023-07-31T07:45:12;101291.31;;;28.29;87.79
54248;BME280;40161;39.768;2.722;2023-07-31T07:47:40;101320.06;;;28.52;87.49
54248;BME280;40161;39.768;2.722;2023-07-31T07:50:06;101290.81;;;28.40;87.21
54248;BME280;40161;39.768;2.722;2023-07-31T07:52:32;101298.44;;;28.49;86.80
54248;BME280;40161;39.768;2.722;2023-07-31T07:54:57;101310.63;;;28.64;87.33
54248;BME280;40161;39.768;2.722;2023-07-31T07:57:23;101314.19;;;28.74;87.46
54248;BME280;40161;39.768;2.722;2023-07-31T07:59:48;101304.63;;;28.71;87.63
54248;BME280;40161;39.768;2.722;2023-07-31T08:02:14;101308.03;;;28.75;86.35
54248;BME280;40161;39.768;2.722;2023-07-31T08:04:39;101302.22;;;28.79;85.96
54248;BME280;40161;39.768;2.722;2023-07-31T08:07:05;101299.41;;;28.79;85.84
54248;BME280;40161;39.768;2.722;2023-07-31T08:09:30;101294.41;;;28.74;85.92
54248;BME280;40161;39.768;2.722;2023-07-31T08:11:56;101301.63;;;28.75;87.31
54248;BME280;40161;39.768;2.722;2023-07-31T08:14:27;101301.31;;;28.73;88.49
54248;BME280;40161;39.768;2.722;2023-07-31T08:16:52;101282.25;;;28.58;88.64
54248;BME280;40161;39.768;2.722;2023-07-31T08:19:18;101299.16;;;28.68;88.13
54248;BME280;40161;39.768;2.722;2023-07-31T08:21:43;101289.75;;;28.61;88.77
54248;BME280;40161;39.768;2.722;2023-07-31T08:24:09;101306.00;;;28.76;88.66
54248;BME280;40161;39.768;2.722;2023-07-31T08:26:34;101312.69;;;28.88;88.29
54248;BME280;40161;39.768;2.722;2023-07-31T08:29:00;101312.69;;;28.88;88.02
54248;BME280;40161;39.768;2.722;2023-07-31T08:31:25;101306.88;;;28.91;88.04
54248;BME280;40161;39.768;2.722;2023-07-31T08:33:52;101275.84;;;28.82;87.40
54248;BME280;40161;39.768;2.722;2023-07-31T08:36:17;101306.34;;;29.02;87.22
54248;BME280;40161;39.768;2.722;2023-07-31T08:38:43;101306.63;;;29.04;87.45
54248;BME280;40161;39.768;2.722;2023-07-31T08:41:08;101310.69;;;29.12;87.33
54248;BME280;40161;39.768;2.722;2023-07-31T08:43:35;101301.91;;;29.10;86.85
54248;BME280;40161;39.768;2.722;2023-07-31T08:46:02;101315.66;;;29.17;87.02
54248;BME280;40161;39.768;2.722;2023-07-31T08:48:28;101312.81;;;29.17;85.66
54248;BME280;40161;39.768;2.722;2023-07-31T08:50:54;101307.84;;;29.12;85.30
54248;BME280;40161;39.768;2.722;2023-07-31T08:53:20;101294.19;;;29.10;85.32
54248;BME280;40161;39.768;2.722;2023-07-31T08:55:48;101302.13;;;29.21;85.96
54248;BME280;40161;39.768;2.722;2023-07-31T08:58:13;101263.03;;;28.96;86.06
54248;BME280;40161;39.768;2.722;2023-07-31T09:00:41;101298.69;;;29.17;85.94
54248;BME280;40161;39.768;2.722;2023-07-31T09:05:39;101298.50;;;29.21;87.15
54248;BME280;40161;39.768;2.722;2023-07-31T09:08:07;101306.94;;;29.30;87.69
54248;BME280;40161;39.768;2.722;2023-07-31T09:10:34;101304.69;;;29.34;86.60
54248;BME280;40161;39.768;2.722;2023-07-31T09:13:00;101302.00;;;29.40;85.21
54248;BME280;40161;39.768;2.722;2023-07-31T09:15:28;101300.06;;;29.46;85.10
54248;BME280;40161;39.768;2.722;2023-07-31T09:18:01;101276.84;;;29.42;84.34
54248;BME280;40161;39.768;2.722;2023-07-31T09:20:27;101300.09;;;29.61;83.85
54248;BME280;40161;39.768;2.722;2023-07-31T09:22:53;101301.00;;;29.67;82.99
54248;BME280;40161;39.768;2.722;2023-07-31T09:25:23;101306.47;;;29.70;82.08
54248;BME280;40161;39.768;2.722;2023-07-31T09:27:51;101310.97;;;29.77;81.52
54248;BME280;40161;39.768;2.722;2023-07-31T09:30:17;101305.88;;;29.81;81.68
54248;BME280;40161;39.768;2.722;2023-07-31T09:32:47;101305.00;;;29.90;82.15
54248;BME280;40161;39.768;2.722;2023-07-31T09:35:27;101282.56;;;29.71;78.94
54248;BME280;40161;39.768;2.722;2023-07-31T09:37:55;101312.50;;;29.78;78.05
54248;BME280;40161;39.768;2.722;2023-07-31T09:40:28;101316.69;;;29.68;78.84
54248;BME280;40161;39.768;2.722;2023-07-31T09:42:56;101308.41;;;29.64;79.47
54248;BME280;40161;39.768;2.722;2023-07-31T09:45:23;101308.75;;;29.57;78.59
54248;BME280;40161;39.768;2.722;2023-07-31T09:47:49;101299.44;;;29.42;79.63
54248;BME280;40161;39.768;2.722;2023-07-31T09:50:14;101302.00;;;29.40;80.70
54248;BME280;40161;39.768;2.722;2023-07-31T09:52:41;101313.88;;;29.44;81.23
54248;BME280;40161;39.768;2.722;2023-07-31T09:55:10;101315.06;;;29.52;81.39
54248;BME280;40161;39.768;2.722;2023-07-31T09:57:41;101295.00;;;29.50;81.22
54248;BME280;40161;39.768;2.722;2023-07-31T10:00:09;101301.66;;;29.62;81.25
54248;BME280;40161;39.768;2.722;2023-07-31T10:02:35;101316.81;;;29.73;81.64
54248;BME280;40161;39.768;2.722;2023-07-31T10:05:03;101301.81;;;29.58;82.14
54248;BME280;40161;39.768;2.722;2023-07-31T10:07:30;101330.63;;;29.71;82.16
54248;BME280;40161;39.768;2.722;2023-07-31T10:10:00;101319.63;;;29.73;82.22
54248;BME280;40161;39.768;2.722;2023-07-31T10:12:27;101327.50;;;29.69;83.30
54248;BME280;40161;39.768;2.722;2023-07-31T10:14:57;101316.72;;;29.58;82.70
54248;BME280;40161;39.768;2.722;2023-07-31T10:17:25;101327.59;;;29.60;83.57
54248;BME280;40161;39.768;2.722;2023-07-31T10:19:51;101316.56;;;29.62;84.04
54248;BME280;40161;39.768;2.722;2023-07-31T10:22:19;101323.50;;;29.61;84.03
54248;BME280;40161;39.768;2.722;2023-07-31T10:24:45;101319.16;;;29.51;85.49
54248;BME280;40161;39.768;2.722;2023-07-31T10:27:12;101303.72;;;29.37;85.50
54248;BME280;40161;39.768;2.722;2023-07-31T10:29:43;101324.09;;;29.41;85.72
54248;BME280;40161;39.768;2.722;2023-07-31T10:32:09;101314.84;;;29.41;85.55
54248;BME280;40161;39.768;2.722;2023-07-31T10:34:38;101326.28;;;29.46;86.36
54248;BME280;40161;39.768;2.722;2023-07-31T10:37:20;101287.03;;;29.24;85.94
54248;BME280;40161;39.768;2.722;2023-07-31T10:39:59;101324.09;;;29.41;86.28
54248;BME280;40161;39.768;2.722;2023-07-31T10:42:49;101326.94;;;29.41;87.46
54248;BME280;40161;39.768;2.722;2023-07-31T10:45:27;101310.31;;;29.19;88.38
54248;BME280;40161;39.768;2.722;2023-07-31T10:50:30;101333.28;;;29.12;89.73
54248;BME280;40161;39.768;2.722;2023-07-31T10:52:58;101337.84;;;29.09;89.69
54248;BME280;40161;39.768;2.722;2023-07-31T10:58:05;101343.50;;;29.09;90.26
54248;BME280;40161;39.768;2.722;2023-07-31T11:00:31;101333.94;;;29.07;90.26
54248;BME280;40161;39.768;2.722;2023-07-31T11:05:45;101335.63;;;29.14;91.43
54248;BME280;40161;39.768;2.722;2023-07-31T11:10:36;101318.34;;;28.88;92.27
54248;BME280;40161;39.768;2.722;2023-07-31T11:13:04;101314.38;;;28.70;92.71
54248;BME280;40161;39.768;2.722;2023-07-31T11:15:30;101328.69;;;28.91;94.45
54248;BME280;40161;39.768;2.722;2023-07-31T11:17:56;101316.94;;;28.83;95.00
54248;BME280;40161;39.768;2.722;2023-07-31T11:20:24;101324.63;;;28.82;94.23
54248;BME280;40161;39.768;2.722;2023-07-31T11:22:50;101316.59;;;28.90;94.38
54248;BME280;40161;39.768;2.722;2023-07-31T11:25:16;101328.31;;;28.98;93.33
54248;BME280;40161;39.768;2.722;2023-07-31T11:27:41;101321.72;;;29.01;91.89
54248;BME280;40161;39.768;2.722;2023-07-31T11:30:09;101319.69;;;29.01;nan
54248;BME280;40161;39.768;2.722;2023-07-31T11:32:38;101316.72;;;28.96;90.04
54248;BME280;40161;39.768;2.722;2023-07-31T11:35:04;101322.69;;;28.98;89.43
54248;BME280;40161;39.768;2.722;2023-07-31T11:37:44;101311.84;;;28.96;89.10
54248;BME280;40161;39.768;2.722;2023-07-31T11:40:11;101312.19;;;28.89;88.87
54248;BME280;40161;39.768;2.722;2023-07-31T11:42:36;101304.81;;;28.92;88.89
54248;BME280;40161;39.768;2.722;2023-07-31T11:45:09;101309.19;;;28.93;88.83
54248;BME280;40161;39.768;2.722;2023-07-31T11:47:36;101309.19;;;28.93;87.29
54248;BME280;40161;39.768;2.722;2023-07-31T11:50:04;101302.28;;;28.94;87.63
54248;BME280;40161;39.768;2.722;2023-07-31T11:52:35;101302.81;;;28.83;88.40
54248;BME280;40161;39.768;2.722;2023-07-31T11:55:04;101286.13;;;28.70;88.26
54248;BME280;40161;39.768;2.722;2023-07-31T11:57:31;101307.59;;;28.77;88.18
54248;BME280;40161;39.768;2.722;2023-07-31T11:59:57;101299.41;;;28.79;88.92
54248;BME280;40161;39.768;2.722;2023-07-31T12:02:23;101296.16;;;28.95;86.86
54248;BME280;40161;39.768;2.722;2023-07-31T12:04:49;101298.78;;;29.08;86.88
54248;BME280;40161;39.768;2.722;2023-07-31T12:07:14;101294.50;;;29.13;85.90
54248;BME280;40161;39.768;2.722;2023-07-31T12:09:56;101291.50;;;29.16;85.63
54248;BME280;40161;39.768;2.722;2023-07-31T12:12:23;101288.66;;;29.16;85.17
54248;BME280;40161;39.768;2.722;2023-07-31T12:14:49;101279.69;;;29.18;85.70
54248;BME280;40161;39.768;2.722;2023-07-31T12:17:17;101277.84;;;29.15;85.25
54248;BME280;40161;39.768;2.722;2023-07-31T12:19:42;101276.59;;;29.16;85.56
54248;BME280;40161;39.768;2.722;2023-07-31T12:22:12;101270.44;;;29.17;85.18
54248;BME280;40161;39.768;2.722;2023-07-31T12:24:39;101271.66;;;29.25;85.12
54248;BME280;40161;39.768;2.722;2023-07-31T12:27:12;101256.72;;;29.25;84.70
54248;BME280;40161;39.768;2.722;2023-07-31T12:29:39;101263.94;;;29.26;84.15
54248;BME280;40161;39.768;2.722;2023-07-31T12:32:22;101243.38;;;29.25;83.49
54248;BME280;40161;39.768;2.722;2023-07-31T12:34:49;101264.91;;;29.23;84.18
54248;BME280;40161;39.768;2.722;2023-07-31T12:37:15;101239.28;;;29.26;84.15
54248;BME280;40161;39.768;2.722;2023-07-31T12:39:40;101253.47;;;29.56;82.40
54248;BME280;40161;39.768;2.722;2023-07-31T12:42:06;101247.28;;;29.67;82.46
54248;BME280;40161;39.768;2.722;2023-07-31T12:44:31;101249.31;;;29.81;80.53
54248;BME280;40161;39.768;2.722;2023-07-31T12:46:57;101218.88;;;29.61;81.29
54248;BME280;40161;39.768;2.722;2023-07-31T12:49:23;101222.78;;;29.78;79.82
54248;BME280;40161;39.768;2.722;2023-07-31T12:51:48;101246.28;;;29.85;79.21
54248;BME280;40161;39.768;2.722;2023-07-31T12:54:14;101210.00;;;29.83;79.48
54248;BME280;40161;39.768;2.722;2023-07-31T12:56:40;101248.22;;;30.08;79.45
54248;BME280;40161;39.768;2.722;2023-07-31T12:59:05;101215.34;;;29.96;78.71
54248;BME280;40161;39.768;2.722;2023-07-31T13:01:31;101227.13;;;30.09;79.28
54248;BME280;40161;39.768;2.722;2023-07-31T13:03:57;101233.00;;;30.06;78.97
54248;BME280;40161;39.768;2.722;2023-07-31T13:06:24;101226.34;;;30.09;79.56